createdAt,value
2023-01-11T00:02:13.287Z,77.40
2023-01-11T00:04:39.906Z,77.40
2023-01-11T00:07:06.510Z,77.40
2023-01-11T00:09:35.498Z,77.40
2023-01-11T00:12:02.293Z,77.40
2023-01-11T00:14:28.869Z,77.40
2023-01-11T00:16:58.256Z,77.40
2023-01-11T00:19:27.240Z,77.40
2023-01-11T00:21:56.236Z,77.40
2023-01-11T00:24:24.920Z,77.40
2023-01-11T00:26:51.450Z,77.40
2023-01-11T00:29:18.106Z,77.40
2023-01-11T00:31:44.675Z,77.40
2023-01-11T00:34:11.218Z,77.40
2023-01-11T00:36:37.788Z,77.40
2023-01-11T00:39:04.355Z,77.40
2023-01-11T00:41:49.673Z,77.40
2023-01-11T00:44:35.022Z,77.40
2023-01-11T00:47:20.482Z,77.40
2023-01-11T00:49:47.080Z,77.40
2023-01-11T00:52:13.606Z,77.40
2023-01-11T00:54:41.020Z,77.40
2023-01-11T00:57:07.997Z,77.40
2023-01-11T00:59:34.929Z,77.40
2023-01-11T01:02:04.248Z,77.40
2023-01-11T01:04:31.018Z,77.40
2023-01-11T01:06:57.620Z,77.40
2023-01-11T01:09:26.603Z,77.40
2023-01-11T01:11:53.188Z,77.40
2023-01-11T01:14:25.911Z,77.40
2023-01-11T01:16:53.249Z,77.40
2023-01-11T01:19:21.083Z,77.40
2023-01-11T01:21:50.257Z,77.40
2023-01-11T01:24:16.829Z,77.40
2023-01-11T01:26:43.742Z,77.40
2023-01-11T01:29:10.302Z,77.40
2023-01-11T01:31:36.898Z,77.40
2023-01-11T01:34:06.463Z,77.40
2023-01-11T01:36:33.329Z,77.40
2023-01-11T01:39:00.855Z,77.40
2023-01-11T01:41:30.338Z,77.40
2023-01-11T01:44:01.558Z,77.40
2023-01-11T01:46:31.790Z,77.40
2023-01-11T01:49:00.836Z,77.40
2023-01-11T01:51:30.718Z,77.40
2023-01-11T01:53:59.032Z,77.40
2023-01-11T01:56:33.604Z,77.40
2023-01-11T01:59:02.718Z,77.40
2023-01-11T02:01:48.822Z,77.40
2023-01-11T02:04:20.938Z,77.40
2023-01-11T02:06:47.933Z,77.40
2023-01-11T02:09:32.849Z,77.40
2023-01-11T02:12:02.088Z,77.40
2023-01-11T02:14:31.069Z,77.40
2023-01-11T02:16:57.795Z,77.40
2023-01-11T02:19:43.224Z,77.40
2023-01-11T02:22:12.136Z,77.40
2023-01-11T02:24:44.799Z,77.40
2023-01-11T02:27:30.505Z,77.40
2023-01-11T02:30:03.647Z,77.40
2023-01-11T02:32:50.797Z,77.40
2023-01-11T02:35:26.712Z,77.40
2023-01-11T02:38:09.918Z,77.40
2023-01-11T02:40:48.721Z,77.40
2023-01-11T02:43:39.421Z,77.40
2023-01-11T02:46:11.605Z,77.40
2023-01-11T02:48:41.257Z,77.40
2023-01-11T02:51:07.818Z,77.40
2023-01-11T02:53:39.679Z,77.40
2023-01-11T02:56:13.214Z,77.40
2023-01-11T02:58:41.885Z,77.40
2023-01-11T03:01:09.349Z,77.40
2023-01-11T03:03:38.425Z,77.40
2023-01-11T03:06:05.047Z,77.40
2023-01-11T03:08:38.625Z,77.40
2023-01-11T03:11:06.874Z,77.40
2023-01-11T03:13:55.976Z,77.40
2023-01-11T03:16:27.314Z,77.40
2023-01-11T03:19:02.204Z,77.40
2023-01-11T03:21:31.809Z,77.40
2023-01-11T03:24:06.943Z,77.40
2023-01-11T03:26:33.424Z,77.40
2023-01-11T03:29:18.568Z,77.40
2023-01-11T03:31:47.109Z,77.40
2023-01-11T03:34:31.848Z,77.40
2023-01-11T03:37:01.013Z,77.40
2023-01-11T03:39:49.021Z,77.40
2023-01-11T03:42:22.979Z,77.40
2023-01-11T03:44:52.939Z,77.40
2023-01-11T03:47:21.925Z,77.40
2023-01-11T03:49:55.506Z,77.40
2023-01-11T03:52:25.609Z,77.40
2023-01-11T03:54:58.087Z,77.40
2023-01-11T03:57:30.583Z,77.40
2023-01-11T03:59:59.333Z,77.40
2023-01-11T04:02:33.594Z,77.40
2023-01-11T04:05:00.245Z,77.40
2023-01-11T04:07:26.824Z,77.40
2023-01-11T04:09:53.333Z,77.40
2023-01-11T04:12:19.849Z,77.40
2023-01-11T04:14:48.953Z,77.40
2023-01-11T04:17:18.364Z,77.40
2023-01-11T04:19:44.963Z,77.40
2023-01-11T04:22:11.609Z,77.40
2023-01-11T04:24:40.392Z,77.40
2023-01-11T04:27:06.969Z,77.40
2023-01-11T04:29:33.533Z,77.40
2023-01-11T04:32:00.118Z,77.40
2023-01-11T04:34:29.111Z,77.40
2023-01-11T04:36:55.691Z,77.40
2023-01-11T04:39:22.304Z,77.40
2023-01-11T04:42:10.052Z,77.40
2023-01-11T04:44:36.681Z,77.40
2023-01-11T04:47:03.246Z,77.40
2023-01-11T04:49:29.865Z,77.40
2023-01-11T04:51:56.795Z,77.40
2023-01-11T04:54:23.398Z,77.40
2023-01-11T04:56:54.918Z,77.40
2023-01-11T04:59:21.538Z,77.40
2023-01-11T05:01:48.085Z,77.40
2023-01-11T05:04:17.192Z,77.40
2023-01-11T05:06:46.484Z,77.40
2023-01-11T05:09:14.313Z,77.40
2023-01-11T05:11:41.172Z,77.40
2023-01-11T05:14:07.807Z,77.40
2023-01-11T05:16:34.620Z,77.40
2023-01-11T05:19:01.731Z,77.40
2023-01-11T05:21:31.173Z,77.40
2023-01-11T05:24:01.536Z,77.40
2023-01-11T05:26:29.978Z,77.40
2023-01-11T05:28:58.903Z,77.40
2023-01-11T05:31:26.042Z,77.40
2023-01-11T05:33:53.154Z,77.40
2023-01-11T05:36:23.064Z,77.40
2023-01-11T05:38:52.778Z,77.40
2023-01-11T05:41:20.558Z,77.40
2023-01-11T05:44:06.581Z,77.40
2023-01-11T05:46:34.242Z,77.40
2023-01-11T05:49:01.226Z,77.40
2023-01-11T05:51:30.495Z,77.40
2023-01-11T05:54:00.018Z,77.40
2023-01-11T05:56:28.976Z,77.40
2023-01-11T05:58:55.557Z,77.40
2023-01-11T06:01:23.094Z,77.40
2023-01-11T06:03:49.939Z,77.40
2023-01-11T06:06:16.902Z,77.40
2023-01-11T06:08:43.512Z,77.40
2023-01-11T06:11:10.212Z,77.40
2023-01-11T06:13:39.052Z,77.40
2023-01-11T06:16:05.820Z,77.40
2023-01-11T06:18:33.713Z,77.40
2023-01-11T06:21:01.164Z,77.40
2023-01-11T06:23:30.879Z,77.40
2023-01-11T06:26:00.368Z,77.40
2023-01-11T06:28:29.559Z,77.40
2023-01-11T06:30:57.064Z,77.40
2023-01-11T06:33:24.484Z,77.40
2023-01-11T06:35:53.724Z,77.40
2023-01-11T06:38:21.843Z,77.40
2023-01-11T06:40:58.870Z,77.40
2023-01-11T06:43:26.244Z,77.40
2023-01-11T06:45:53.168Z,77.40
2023-01-11T06:48:22.639Z,77.40
2023-01-11T06:50:51.944Z,77.40
2023-01-11T06:53:18.740Z,77.40
2023-01-11T06:55:45.372Z,77.40
2023-01-11T06:58:12.303Z,77.40
2023-01-11T07:00:39.111Z,77.40
2023-01-11T07:03:08.153Z,77.40
2023-01-11T07:05:38.251Z,77.40
2023-01-11T07:08:04.961Z,77.40
2023-01-11T07:10:31.627Z,77.40
2023-01-11T07:13:00.697Z,77.40
2023-01-11T07:15:27.371Z,77.40
2023-01-11T07:17:54.763Z,77.40
2023-01-11T07:20:22.073Z,77.40
2023-01-11T07:22:51.444Z,77.40
2023-01-11T07:25:18.258Z,77.40
2023-01-11T07:27:47.029Z,77.40
2023-01-11T07:30:13.705Z,77.40
2023-01-11T07:32:40.310Z,77.40
2023-01-11T07:35:09.300Z,77.40
2023-01-11T07:37:37.080Z,77.40
2023-01-11T07:40:03.961Z,77.40
2023-01-11T07:42:51.709Z,77.40
2023-01-11T07:45:18.496Z,77.40
2023-01-11T07:47:47.368Z,77.40
2023-01-11T07:50:13.917Z,77.40
2023-01-11T07:52:46.209Z,77.40
2023-01-11T07:55:12.838Z,77.40
2023-01-11T07:57:39.416Z,77.40
2023-01-11T08:00:06.564Z,77.40
2023-01-11T08:02:35.434Z,77.40
2023-01-11T08:05:04.488Z,77.40
2023-01-11T08:07:33.393Z,77.40
2023-01-11T08:09:59.964Z,77.40
2023-01-11T08:12:49.436Z,77.40
2023-01-11T08:15:17.354Z,77.40
2023-01-11T08:17:43.942Z,77.40
2023-01-11T08:20:10.991Z,77.40
2023-01-11T08:22:37.649Z,77.40
2023-01-11T08:25:04.603Z,77.40
2023-01-11T08:27:33.371Z,77.40
2023-01-11T08:30:02.583Z,77.40
2023-01-11T08:32:34.150Z,77.40
2023-01-11T08:35:00.791Z,77.40
2023-01-11T08:37:27.512Z,77.40
2023-01-11T08:39:55.870Z,77.40
2023-01-11T08:42:22.633Z,77.40
2023-01-11T08:44:51.608Z,77.40
2023-01-11T08:47:22.858Z,77.40
2023-01-11T08:49:52.135Z,77.40
2023-01-11T08:52:23.728Z,77.40
2023-01-11T08:54:50.496Z,77.40
2023-01-11T08:57:17.132Z,77.40
2023-01-11T08:59:47.086Z,77.40
2023-01-11T09:02:13.812Z,77.40
2023-01-11T09:04:41.466Z,77.40
2023-01-11T09:07:08.419Z,77.40
2023-01-11T09:09:35.011Z,77.40
2023-01-11T09:12:05.508Z,77.40
2023-01-11T09:14:32.304Z,77.40
2023-01-11T09:17:01.030Z,77.40
2023-01-11T09:19:27.903Z,77.40
2023-01-11T09:21:57.578Z,77.40
2023-01-11T09:24:27.070Z,77.40
2023-01-11T09:26:53.666Z,77.40
2023-01-11T09:29:20.407Z,77.40
2023-01-11T09:31:49.301Z,77.40
2023-01-11T09:34:16.283Z,77.40
2023-01-11T09:36:44.172Z,77.40
2023-01-11T09:39:15.700Z,77.40
2023-01-11T09:41:50.913Z,77.40
2023-01-11T09:44:21.394Z,77.40
2023-01-11T09:46:51.334Z,77.40
2023-01-11T09:49:24.381Z,77.40
2023-01-11T09:51:51.500Z,77.40
2023-01-11T09:54:21.770Z,77.40
2023-01-11T09:57:10.458Z,77.40
2023-01-11T09:59:44.760Z,77.40
2023-01-11T10:02:16.567Z,77.40
2023-01-11T10:04:52.393Z,77.40
2023-01-11T10:07:38.012Z,77.40
2023-01-11T10:18:40.559Z,77.40
2023-01-11T10:19:33.444Z,77.40
2023-01-11T10:22:02.135Z,77.40
2023-01-11T10:24:31.712Z,77.40
2023-01-11T10:26:59.818Z,77.40
2023-01-11T10:29:59.519Z,77.40
2023-01-11T10:32:45.550Z,77.40
2023-01-11T10:35:34.071Z,77.40
2023-01-11T10:38:21.590Z,77.40
2023-01-11T10:41:20.057Z,77.40
2023-01-11T10:43:49.116Z,77.40
2023-01-11T10:46:19.803Z,77.40
2023-01-11T10:48:47.037Z,77.40
2023-01-11T10:51:24.773Z,77.40
2023-01-11T10:53:57.840Z,77.40
2023-01-11T10:56:34.432Z,77.40
2023-01-11T10:59:08.802Z,77.40
2023-01-11T11:01:50.714Z,77.40
2023-01-11T11:04:17.294Z,77.40
2023-01-11T11:06:53.785Z,77.40
2023-01-11T11:09:22.559Z,77.40
2023-01-11T11:11:57.609Z,77.40
2023-01-11T11:14:29.829Z,77.40
2023-01-11T11:16:56.808Z,77.40
2023-01-11T11:19:28.901Z,77.40
2023-01-11T11:22:00.947Z,77.40
2023-01-11T11:24:33.088Z,77.40
2023-01-11T11:27:03.507Z,77.40
2023-01-11T11:29:40.658Z,77.40
2023-01-11T11:32:13.817Z,77.40
2023-01-11T11:34:46.052Z,77.40
2023-01-11T11:37:20.257Z,77.40
2023-01-11T11:39:48.446Z,77.40
2023-01-11T11:42:21.068Z,77.40
2023-01-11T11:45:06.200Z,77.40
2023-01-11T11:47:32.791Z,77.40
2023-01-11T11:50:42.708Z,77.40
2023-01-11T11:53:13.746Z,77.40
2023-01-11T11:55:40.298Z,77.40
2023-01-11T11:58:08.574Z,77.40
2023-01-11T12:00:40.540Z,77.40
2023-01-11T12:03:30.219Z,77.40
2023-01-11T12:06:03.597Z,77.40
2023-01-11T12:08:31.489Z,77.40
2023-01-11T12:11:06.172Z,77.40
2023-01-11T12:13:32.739Z,77.40
2023-01-11T12:16:05.574Z,77.40
2023-01-11T12:18:41.415Z,77.40
2023-01-11T12:21:30.170Z,77.40
2023-01-11T12:24:17.236Z,77.40
2023-01-11T12:26:54.996Z,77.40
2023-01-11T12:29:24.351Z,77.40
2023-01-11T12:32:13.363Z,77.40
2023-01-11T12:34:52.628Z,77.40
2023-01-11T12:37:37.353Z,77.40
2023-01-11T12:40:13.932Z,77.40
2023-01-11T12:42:40.465Z,77.40
2023-01-11T12:45:23.473Z,77.40
2023-01-11T12:48:07.600Z,77.40
2023-01-11T12:50:43.424Z,77.40
2023-01-11T12:53:16.135Z,77.40
2023-01-11T12:55:48.530Z,77.40
2023-01-11T12:58:19.298Z,77.40
2023-01-11T13:00:45.862Z,77.40
2023-01-11T13:03:15.221Z,77.40
2023-01-11T13:05:51.079Z,77.40
2023-01-11T13:08:26.630Z,77.40
2023-01-11T13:10:58.441Z,77.40
2023-01-11T13:13:45.272Z,77.40
2023-01-11T13:16:22.291Z,77.40
2023-01-11T13:19:02.081Z,77.40
2023-01-11T13:21:28.601Z,77.40
2023-01-11T13:23:57.623Z,77.40
2023-01-11T13:26:33.577Z,77.40
2023-01-11T13:29:05.929Z,77.40
2023-01-11T13:31:34.126Z,77.40
2023-01-11T13:34:06.916Z,77.40
2023-01-11T13:36:38.774Z,77.40
2023-01-11T13:39:05.385Z,77.40
2023-01-11T13:41:37.776Z,77.40
2023-01-11T13:44:18.458Z,77.40
2023-01-11T13:47:04.614Z,77.40
2023-01-11T13:49:37.604Z,77.40
2023-01-11T13:52:08.924Z,77.40
2023-01-11T13:54:38.475Z,77.40
2023-01-11T13:57:07.152Z,77.40
2023-01-11T13:59:39.628Z,77.40
2023-01-11T14:02:16.360Z,77.40
2023-01-11T14:04:48.820Z,77.40
2023-01-11T14:07:34.780Z,77.40
2023-01-11T14:10:13.592Z,77.40
2023-01-11T14:13:01.407Z,77.40
2023-01-11T14:15:28.698Z,77.40
2023-01-11T14:18:13.717Z,77.40
2023-01-11T14:20:42.676Z,77.40
2023-01-11T14:23:24.108Z,77.40
2023-01-11T14:25:50.673Z,77.40
2023-01-11T14:28:32.558Z,77.40
2023-01-11T14:31:17.995Z,77.40
2023-01-11T14:33:47.744Z,77.40
2023-01-11T14:36:17.065Z,77.40
2023-01-11T14:38:58.100Z,77.40
2023-01-11T14:41:24.672Z,77.40
2023-01-11T14:44:02.119Z,77.40
2023-01-11T14:46:34.767Z,77.40
2023-01-11T14:49:10.812Z,77.40
2023-01-11T14:51:37.474Z,77.40
2023-01-11T14:54:23.387Z,77.40
2023-01-11T14:56:52.147Z,77.40
2023-01-11T14:59:21.791Z,77.40
2023-01-11T15:02:06.289Z,77.40
2023-01-11T15:04:36.042Z,77.40
2023-01-11T15:07:21.308Z,77.40
2023-01-11T15:09:51.077Z,77.40
2023-01-11T15:12:19.263Z,77.40
2023-01-11T15:14:49.768Z,77.40
2023-01-11T15:17:36.275Z,77.40
2023-01-11T15:20:07.482Z,77.40
2023-01-11T15:22:34.236Z,77.40
2023-01-11T15:25:04.939Z,77.40
2023-01-11T15:27:33.630Z,77.40
2023-01-11T15:30:00.767Z,77.40
2023-01-11T15:32:28.843Z,77.40
2023-01-11T15:35:15.384Z,77.40
2023-01-11T15:37:50.575Z,77.40
2023-01-11T15:40:19.575Z,77.40
2023-01-11T15:43:04.777Z,77.40
2023-01-11T15:45:31.337Z,77.40
2023-01-11T15:48:23.309Z,77.40
2023-01-11T15:51:07.600Z,77.40
2023-01-11T15:53:37.170Z,77.40
2023-01-11T15:56:26.130Z,77.40
2023-01-11T15:59:14.175Z,77.40
2023-01-11T16:01:56.732Z,77.40
2023-01-11T16:04:34.444Z,77.40
2023-01-11T16:07:11.534Z,77.40
2023-01-11T16:09:47.269Z,77.40
2023-01-11T16:12:23.020Z,77.40
2023-01-11T16:15:00.198Z,77.40
2023-01-11T16:17:26.783Z,77.40
2023-01-11T16:19:56.682Z,77.40
2023-01-11T16:22:25.716Z,77.40
2023-01-11T16:24:54.897Z,77.40
2023-01-11T16:27:21.557Z,77.40
2023-01-11T16:29:49.665Z,77.40
2023-01-11T16:32:34.962Z,77.40
2023-01-11T16:35:02.395Z,77.40
2023-01-11T16:37:34.141Z,77.40
2023-01-11T16:40:10.188Z,77.40
2023-01-11T16:42:43.137Z,77.40
2023-01-11T16:45:13.638Z,77.40
2023-01-11T16:47:40.262Z,77.40
2023-01-11T16:50:17.471Z,77.40
2023-01-11T16:52:48.272Z,77.40
2023-01-11T16:55:19.826Z,77.40
2023-01-11T16:57:49.094Z,77.40
2023-01-11T17:00:22.003Z,77.40
2023-01-11T17:02:50.166Z,77.40
2023-01-11T17:05:23.047Z,77.40
2023-01-11T17:07:52.240Z,77.40
2023-01-11T17:10:18.756Z,77.40
2023-01-11T17:12:50.109Z,77.40
2023-01-11T17:15:25.040Z,77.40
2023-01-11T17:17:54.079Z,77.40
2023-01-11T17:20:32.493Z,77.40
2023-01-11T17:22:59.635Z,77.40
2023-01-11T17:25:29.579Z,77.40
2023-01-11T17:28:00.850Z,77.40
2023-01-11T17:30:28.310Z,77.40
2023-01-11T17:32:59.024Z,77.40
2023-01-11T17:35:30.198Z,77.40
2023-01-11T17:38:03.475Z,77.40
2023-01-11T17:40:40.272Z,77.40
2023-01-11T17:43:25.379Z,77.40
2023-01-11T17:45:58.592Z,77.40
2023-01-11T17:48:31.562Z,77.40
2023-01-11T17:50:59.405Z,77.40
2023-01-11T17:53:26.799Z,77.40
2023-01-11T17:55:57.698Z,77.40
2023-01-11T17:58:28.087Z,77.40
2023-01-11T18:01:10.001Z,77.40
2023-01-11T18:03:43.099Z,77.40
2023-01-11T18:06:12.507Z,77.40
2023-01-11T18:08:39.336Z,77.40
2023-01-11T18:11:05.904Z,77.40
2023-01-11T18:13:36.469Z,77.40
2023-01-11T18:16:03.933Z,77.40
2023-01-11T18:18:38.852Z,77.40
2023-01-11T18:21:25.452Z,77.40
2023-01-11T18:24:14.331Z,77.40
2023-01-11T18:26:44.863Z,77.40
2023-01-11T18:29:39.775Z,77.40
2023-01-11T18:32:08.347Z,77.40
2023-01-11T18:34:40.116Z,77.40
2023-01-11T18:37:10.534Z,77.40
2023-01-11T18:39:37.082Z,77.40
2023-01-11T18:42:07.333Z,77.40
2023-01-11T18:44:36.337Z,77.40
2023-01-11T18:47:10.415Z,77.40
2023-01-11T18:49:37.041Z,77.40
2023-01-11T18:52:05.305Z,77.40
2023-01-11T18:54:31.844Z,77.40
2023-01-11T18:56:58.759Z,77.40
2023-01-11T18:59:25.339Z,77.40
2023-01-11T19:02:01.676Z,77.40
2023-01-11T19:04:37.220Z,77.40
2023-01-11T19:07:04.057Z,77.40
2023-01-11T19:09:30.653Z,77.40
2023-01-11T19:11:57.240Z,77.40
2023-01-11T19:14:24.111Z,77.40
2023-01-11T19:16:50.914Z,77.40
2023-01-11T19:19:17.737Z,77.40
2023-01-11T19:21:46.566Z,77.40
2023-01-11T19:24:15.509Z,77.40
2023-01-11T19:26:42.280Z,77.40
2023-01-11T19:29:09.068Z,77.40
2023-01-11T19:31:35.667Z,77.40
2023-01-11T19:34:02.302Z,77.40
2023-01-11T19:36:32.081Z,77.40
2023-01-11T19:39:01.551Z,77.40
2023-01-11T19:41:48.094Z,77.40
2023-01-11T19:44:14.645Z,77.40
2023-01-11T19:46:41.227Z,77.40
2023-01-11T19:49:07.894Z,77.40
2023-01-11T19:51:34.794Z,77.40
2023-01-11T19:54:01.424Z,77.40
2023-01-11T19:56:35.259Z,77.40
2023-01-11T19:59:02.188Z,77.40
2023-01-11T20:01:29.112Z,77.40
2023-01-11T20:03:55.718Z,77.40
2023-01-11T20:06:22.346Z,77.40
2023-01-11T20:08:51.409Z,77.40
2023-01-11T20:11:18.483Z,77.40
2023-01-11T20:13:50.691Z,77.40
2023-01-11T20:16:21.937Z,77.40
2023-01-11T20:18:52.799Z,77.40
2023-01-11T20:21:19.805Z,77.40
2023-01-11T20:23:46.722Z,77.40
2023-01-11T20:26:15.291Z,77.40
2023-01-11T20:28:42.702Z,77.40
2023-01-11T20:31:09.321Z,77.40
2023-01-11T20:33:35.957Z,77.40
2023-01-11T20:36:09.674Z,77.40
2023-01-11T20:38:36.460Z,77.40
2023-01-11T20:41:13.568Z,77.40
2023-01-11T20:43:40.115Z,77.40
2023-01-11T20:46:07.076Z,77.40
2023-01-11T20:48:35.745Z,77.40
2023-01-11T20:51:05.627Z,77.40
2023-01-11T20:53:34.604Z,77.40
2023-01-11T20:56:04.097Z,77.40
2023-01-11T20:58:30.986Z,77.40
2023-01-11T21:01:02.972Z,77.40
2023-01-11T21:03:29.702Z,77.40
2023-01-11T21:05:56.399Z,77.40
2023-01-11T21:08:25.493Z,77.40
2023-01-11T21:10:52.109Z,77.40
2023-01-11T21:13:18.658Z,77.40
2023-01-11T21:15:47.924Z,77.40
2023-01-11T21:18:14.883Z,77.40
2023-01-11T21:20:48.294Z,77.40
2023-01-11T21:23:17.321Z,77.40
2023-01-11T21:25:43.862Z,77.40
2023-01-11T21:28:11.171Z,77.40
2023-01-11T21:30:37.745Z,77.40
2023-01-11T21:33:04.298Z,77.40
2023-01-11T21:35:31.595Z,77.40
2023-01-11T21:38:00.451Z,77.40
2023-01-11T21:40:27.082Z,77.40
2023-01-11T21:42:54.327Z,77.30
2023-01-11T21:45:20.915Z,77.40
2023-01-11T21:47:49.690Z,77.40
2023-01-11T21:50:18.766Z,77.40
2023-01-11T21:52:45.339Z,77.40
2023-01-11T21:55:12.087Z,77.30
2023-01-11T21:57:38.594Z,77.20
2023-01-11T22:00:05.664Z,77.30
2023-01-11T22:02:32.242Z,77.30
2023-01-11T22:04:59.512Z,77.30
2023-01-11T22:07:29.496Z,77.20
2023-01-11T22:10:04.463Z,77.20
2023-01-11T22:12:32.643Z,77.20
2023-01-11T22:14:59.359Z,77.20
2023-01-11T22:17:25.996Z,77.20
2023-01-11T22:19:53.443Z,77.20
2023-01-11T22:22:20.025Z,77.30
2023-01-11T22:24:46.592Z,77.20
2023-01-11T22:27:13.275Z,77.30
2023-01-11T22:29:45.396Z,77.30
2023-01-11T22:32:11.997Z,77.30
2023-01-11T22:34:39.444Z,77.20
2023-01-11T22:37:06.696Z,77.20
2023-01-11T22:39:37.852Z,77.30
2023-01-11T22:42:04.931Z,77.30
2023-01-11T22:44:31.517Z,77.30
2023-01-11T22:46:58.336Z,77.20
2023-01-11T22:49:25.157Z,77.10
2023-01-11T22:51:51.892Z,77.20
2023-01-11T22:54:20.863Z,77.10
2023-01-11T22:56:47.703Z,77.10
2023-01-11T22:59:14.438Z,77.00
2023-01-11T23:01:43.563Z,77.30
2023-01-11T23:04:11.870Z,77.30
2023-01-11T23:06:39.988Z,77.00
2023-01-11T23:09:12.344Z,76.90
2023-01-11T23:11:58.853Z,77.20
2023-01-11T23:14:29.663Z,77.00
2023-01-11T23:16:58.752Z,77.10
2023-01-11T23:19:25.481Z,77.10
2023-01-11T23:21:52.175Z,77.00
2023-01-11T23:24:18.885Z,77.20
2023-01-11T23:26:45.787Z,76.90
2023-01-11T23:29:15.738Z,77.10
2023-01-11T23:31:43.162Z,77.00
2023-01-11T23:34:10.840Z,76.80
2023-01-11T23:36:38.753Z,76.70
2023-01-11T23:39:06.381Z,77.00
2023-01-11T23:41:54.023Z,77.00
2023-01-11T23:44:20.710Z,76.80
2023-01-11T23:47:28.179Z,76.70
2023-01-11T23:49:55.796Z,76.70
2023-01-11T23:52:26.581Z,76.90
2023-01-11T23:54:53.230Z,77.00
2023-01-11T23:57:20.424Z,77.00
2023-01-11T23:59:47.187Z,77.10
